createdAt,value
2019-03-23T00:01:05.207Z,8.10
2019-03-23T00:03:34.264Z,8.00
2019-03-23T00:06:03.315Z,7.90
2019-03-23T00:08:32.439Z,7.80
2019-03-23T00:11:01.521Z,7.70
2019-03-23T00:13:30.604Z,7.70
2019-03-23T00:15:59.683Z,7.70
2019-03-23T00:18:28.787Z,7.70
2019-03-23T00:20:57.860Z,7.70
2019-03-23T00:23:26.931Z,7.60
2019-03-23T00:25:58.434Z,7.50
2019-03-23T00:28:27.517Z,7.40
2019-03-23T00:30:56.679Z,7.30
2019-03-23T00:33:27.272Z,7.30
2019-03-23T00:35:56.369Z,7.30
2019-03-23T00:38:25.424Z,7.30
2019-03-23T00:40:54.513Z,7.30
2019-03-23T00:43:23.572Z,7.30
2019-03-23T00:45:52.648Z,7.30
2019-03-23T00:48:21.721Z,7.30
2019-03-23T00:50:50.788Z,7.30
2019-03-23T00:53:19.968Z,7.30
2019-03-23T00:55:49.081Z,7.30
2019-03-23T00:58:18.145Z,7.30
2019-03-23T01:00:47.670Z,7.40
2019-03-23T01:03:16.744Z,7.40
2019-03-23T01:05:45.889Z,7.30
2019-03-23T01:08:14.953Z,7.30
2019-03-23T01:10:44.033Z,7.20
2019-03-23T01:13:13.097Z,7.30
2019-03-23T01:15:42.199Z,7.20
2019-03-23T01:18:11.269Z,7.20
2019-03-23T01:20:49.354Z,7.10
2019-03-23T01:23:11.121Z,7.00
2019-03-23T01:25:40.203Z,7.00
2019-03-23T01:28:09.268Z,7.00
2019-03-23T01:30:38.344Z,6.90
2019-03-23T01:33:07.414Z,6.90
2019-03-23T01:35:36.564Z,6.80
2019-03-23T01:38:05.704Z,6.70
2019-03-23T01:40:36.409Z,6.70
2019-03-23T01:43:05.624Z,6.70
2019-03-23T01:45:34.688Z,6.60
2019-03-23T01:48:03.996Z,6.60
2019-03-23T01:50:33.160Z,6.60
2019-03-23T01:53:02.231Z,6.50
2019-03-23T01:55:31.304Z,6.40
2019-03-23T01:58:00.363Z,6.40
2019-03-23T02:00:29.427Z,6.30
2019-03-23T02:02:58.478Z,6.30
2019-03-23T02:05:27.572Z,6.20
2019-03-23T02:07:56.636Z,6.10
2019-03-23T02:10:25.708Z,6.00
2019-03-23T02:12:54.785Z,6.10
2019-03-23T02:15:23.852Z,6.00
2019-03-23T02:17:52.901Z,6.00
2019-03-23T02:20:22.005Z,5.90
2019-03-23T02:22:51.082Z,6.00
2019-03-23T02:25:20.139Z,5.90
2019-03-23T02:27:49.220Z,5.90
2019-03-23T02:30:18.305Z,5.90
2019-03-23T02:32:47.360Z,5.80
2019-03-23T02:35:16.413Z,5.80
2019-03-23T02:37:45.518Z,5.70
2019-03-23T02:40:14.661Z,5.70
2019-03-23T02:42:43.737Z,5.70
2019-03-23T02:45:13.253Z,5.70
2019-03-23T02:47:42.381Z,5.70
2019-03-23T02:50:11.787Z,5.70
2019-03-23T02:52:40.849Z,5.70
2019-03-23T02:55:10.809Z,5.70
2019-03-23T02:57:39.923Z,5.70
2019-03-23T03:00:16.247Z,5.70
2019-03-23T03:02:45.377Z,5.70
2019-03-23T03:05:14.771Z,5.70
2019-03-23T03:07:44.176Z,5.60
2019-03-23T03:10:16.456Z,5.60
2019-03-23T03:12:45.584Z,5.60
2019-03-23T03:15:14.646Z,5.50
2019-03-23T03:17:43.799Z,5.50
2019-03-23T03:20:12.921Z,5.40
2019-03-23T03:22:41.980Z,5.50
2019-03-23T03:25:11.105Z,5.50
2019-03-23T03:27:40.180Z,5.40
2019-03-23T03:30:11.333Z,5.50
2019-03-23T03:32:40.424Z,5.50
2019-03-23T03:35:09.675Z,5.50
2019-03-23T03:37:38.758Z,5.50
2019-03-23T03:40:08.749Z,5.50
2019-03-23T03:42:37.927Z,5.50
2019-03-23T03:45:08.470Z,5.60
2019-03-23T03:47:41.083Z,5.70
2019-03-23T03:50:09.570Z,5.70
2019-03-23T03:52:38.687Z,5.60
2019-03-23T03:55:07.889Z,5.70
2019-03-23T03:57:36.961Z,5.60
2019-03-23T04:00:07.467Z,5.60
2019-03-23T04:02:36.814Z,5.70
2019-03-23T04:05:06.598Z,5.70
2019-03-23T04:07:35.694Z,5.80
2019-03-23T04:10:08.590Z,5.80
2019-03-23T04:12:37.733Z,5.80
2019-03-23T04:15:10.816Z,5.90
2019-03-23T04:17:39.866Z,6.00
2019-03-23T04:20:10.080Z,6.10
2019-03-23T04:22:39.408Z,6.10
2019-03-23T04:25:10.112Z,6.20
2019-03-23T04:27:39.184Z,6.20
2019-03-23T04:30:10.563Z,6.40
2019-03-23T04:32:39.727Z,6.40
2019-03-23T04:35:09.222Z,6.60
2019-03-23T04:37:38.368Z,6.60
2019-03-23T04:40:10.017Z,6.70
2019-03-23T04:42:39.080Z,6.70
2019-03-23T04:45:10.008Z,6.70
2019-03-23T04:47:39.063Z,6.80
2019-03-23T04:50:09.877Z,6.90
2019-03-23T04:52:38.936Z,6.90
2019-03-23T04:55:14.092Z,6.80
2019-03-23T04:57:43.179Z,6.90
2019-03-23T05:00:14.990Z,6.90
2019-03-23T05:02:44.075Z,7.00
2019-03-23T05:05:13.432Z,7.00
2019-03-23T05:07:42.500Z,7.10
2019-03-23T05:10:12.112Z,7.10
2019-03-23T05:12:41.174Z,7.10
2019-03-23T05:15:10.466Z,7.20
2019-03-23T05:17:39.657Z,7.20
2019-03-23T05:20:10.924Z,7.20
2019-03-23T05:22:39.985Z,7.30
2019-03-23T05:25:20.894Z,7.30
2019-03-23T05:27:49.990Z,7.30
2019-03-23T05:30:19.067Z,7.30
2019-03-23T05:32:48.136Z,7.40
2019-03-23T05:35:17.216Z,7.40
2019-03-23T05:37:46.296Z,7.50
2019-03-23T05:40:15.437Z,7.50
2019-03-23T05:42:44.508Z,7.50
2019-03-23T05:45:13.657Z,7.50
2019-03-23T05:47:42.784Z,7.60
2019-03-23T05:50:12.006Z,7.60
2019-03-23T05:52:41.148Z,7.70
2019-03-23T05:55:10.681Z,7.60
2019-03-23T05:57:39.744Z,7.70
2019-03-23T06:00:11.503Z,7.80
2019-03-23T06:02:40.573Z,7.70
2019-03-23T06:05:09.728Z,7.80
2019-03-23T06:07:38.873Z,7.90
2019-03-23T06:10:08.079Z,7.80
2019-03-23T06:12:37.161Z,7.90
2019-03-23T06:15:06.658Z,7.90
2019-03-23T06:17:35.775Z,8.00
2019-03-23T06:20:06.865Z,8.00
2019-03-23T06:22:35.972Z,8.00
2019-03-23T06:25:07.982Z,8.10
2019-03-23T06:27:37.045Z,8.10
2019-03-23T06:30:09.036Z,8.10
2019-03-23T06:32:38.111Z,8.10
2019-03-23T06:35:07.902Z,8.10
2019-03-23T06:37:36.986Z,8.10
2019-03-23T06:40:10.427Z,8.20
2019-03-23T06:42:38.993Z,8.20
2019-03-23T06:45:09.892Z,8.20
2019-03-23T06:47:39.036Z,8.20
2019-03-23T06:50:09.825Z,8.20
2019-03-23T06:52:38.904Z,8.20
2019-03-23T06:55:09.225Z,8.20
2019-03-23T06:57:38.372Z,8.20
2019-03-23T07:00:13.366Z,8.30
2019-03-23T07:02:42.542Z,8.30
2019-03-23T07:05:11.768Z,8.40
2019-03-23T07:07:41.018Z,8.40
2019-03-23T07:10:13.588Z,8.60
2019-03-23T07:12:42.668Z,8.70
2019-03-23T07:15:20.061Z,8.90
2019-03-23T07:17:43.874Z,9.00
2019-03-23T07:20:14.172Z,9.10
2019-03-23T07:22:43.259Z,9.10
2019-03-23T07:25:12.676Z,9.20
2019-03-23T07:27:41.806Z,9.20
2019-03-23T07:30:13.694Z,9.20
2019-03-23T07:32:42.821Z,9.30
2019-03-23T07:35:12.137Z,9.40
2019-03-23T07:37:41.281Z,9.50
2019-03-23T07:40:16.187Z,9.60
2019-03-23T07:42:45.322Z,9.70
2019-03-23T07:45:15.407Z,9.80
2019-03-23T07:47:44.476Z,10.00
2019-03-23T07:50:14.934Z,10.10
2019-03-23T07:52:44.073Z,10.20
2019-03-23T07:55:15.539Z,10.40
2019-03-23T07:57:45.251Z,10.40
2019-03-23T08:00:19.815Z,10.60
2019-03-23T08:02:49.038Z,10.60
2019-03-23T08:05:18.173Z,10.50
2019-03-23T08:07:47.514Z,10.40
2019-03-23T08:10:30.424Z,10.50
2019-03-23T08:12:59.522Z,10.40
2019-03-23T08:15:28.718Z,10.50
2019-03-23T08:17:57.918Z,10.40
2019-03-23T08:20:26.993Z,10.50
2019-03-23T08:22:56.128Z,10.50
2019-03-23T08:25:25.199Z,10.40
2019-03-23T08:27:54.278Z,10.50
2019-03-23T08:30:23.359Z,10.70
2019-03-23T08:32:52.412Z,10.90
2019-03-23T08:35:21.502Z,11.10
2019-03-23T08:37:50.569Z,11.10
2019-03-23T08:40:19.636Z,11.10
2019-03-23T08:42:48.697Z,11.10
2019-03-23T08:45:17.746Z,11.10
2019-03-23T08:47:46.781Z,11.10
2019-03-23T08:50:15.836Z,11.20
2019-03-23T08:52:44.895Z,11.30
2019-03-23T08:55:13.961Z,11.20
2019-03-23T08:57:43.013Z,11.00
2019-03-23T09:00:12.145Z,11.10
2019-03-23T09:02:41.203Z,11.00
2019-03-23T09:05:10.409Z,11.00
2019-03-23T09:07:39.463Z,11.10
2019-03-23T09:10:09.234Z,11.20
2019-03-23T09:12:38.289Z,11.10
2019-03-23T09:15:09.201Z,11.10
2019-03-23T09:17:38.240Z,11.00
2019-03-23T09:20:09.742Z,11.10
2019-03-23T09:22:38.803Z,11.10
2019-03-23T09:25:08.544Z,11.00
2019-03-23T09:27:37.667Z,11.00
2019-03-23T09:30:13.495Z,11.10
2019-03-23T09:32:42.545Z,10.90
2019-03-23T09:35:11.680Z,11.10
2019-03-23T09:37:40.722Z,11.20
2019-03-23T09:40:10.949Z,11.30
2019-03-23T09:42:40.601Z,11.40
2019-03-23T09:45:09.965Z,11.50
2019-03-23T09:47:39.491Z,11.50
2019-03-23T09:50:10.388Z,11.40
2019-03-23T09:52:39.516Z,11.20
2019-03-23T09:55:08.920Z,11.20
2019-03-23T09:57:37.960Z,11.10
2019-03-23T10:00:11.976Z,11.20
2019-03-23T10:02:40.727Z,11.10
2019-03-23T10:05:09.841Z,11.20
2019-03-23T10:07:38.993Z,11.40
2019-03-23T10:10:08.441Z,11.90
2019-03-23T10:12:37.565Z,12.10
2019-03-23T10:15:08.236Z,12.00
2019-03-23T10:17:37.298Z,12.00
2019-03-23T10:20:07.075Z,11.90
2019-03-23T10:22:36.112Z,11.80
2019-03-23T10:25:06.202Z,11.90
2019-03-23T10:27:35.254Z,12.10
2019-03-23T10:30:07.457Z,12.30
2019-03-23T10:32:36.507Z,12.10
2019-03-23T10:35:07.876Z,11.90
2019-03-23T10:37:36.945Z,12.10
2019-03-23T10:40:08.390Z,12.20
2019-03-23T10:42:37.480Z,12.60
2019-03-23T10:45:08.660Z,13.10
2019-03-23T10:47:37.797Z,13.40
2019-03-23T10:50:07.380Z,13.70
2019-03-23T10:52:36.516Z,13.80
2019-03-23T10:55:06.327Z,13.80
2019-03-23T10:57:35.385Z,13.70
2019-03-23T11:00:07.518Z,13.80
2019-03-23T11:02:36.573Z,13.80
2019-03-23T11:05:07.156Z,13.90
2019-03-23T11:07:36.219Z,14.00
2019-03-23T11:10:08.388Z,13.70
2019-03-23T11:12:37.451Z,13.70
2019-03-23T11:15:08.409Z,13.50
2019-03-23T11:17:37.468Z,13.40
2019-03-23T11:20:08.935Z,13.80
2019-03-23T11:22:38.032Z,14.00
2019-03-23T11:25:07.928Z,14.00
2019-03-23T11:27:36.992Z,13.90
2019-03-23T11:30:11.471Z,14.20
2019-03-23T11:32:40.662Z,14.10
2019-03-23T11:35:09.951Z,14.00
2019-03-23T11:37:39.161Z,14.00
2019-03-23T11:40:10.286Z,13.80
2019-03-23T11:42:49.201Z,13.80
2019-03-23T11:45:11.528Z,14.40
2019-03-23T11:47:40.583Z,14.50
2019-03-23T11:50:10.199Z,14.40
2019-03-23T11:52:39.303Z,14.80
2019-03-23T11:55:08.809Z,15.00
2019-03-23T11:57:37.855Z,14.80
2019-03-23T12:00:10.328Z,15.10
2019-03-23T12:02:39.376Z,15.10
2019-03-23T12:05:08.583Z,15.20
2019-03-23T12:07:37.630Z,15.20
2019-03-23T12:10:11.815Z,15.40
2019-03-23T12:12:40.296Z,16.00
2019-03-23T12:15:11.801Z,15.90
2019-03-23T12:17:40.960Z,16.20
2019-03-23T12:20:10.561Z,16.10
2019-03-23T12:22:39.614Z,15.50
2019-03-23T12:25:08.843Z,15.60
2019-03-23T12:27:37.936Z,16.10
2019-03-23T12:30:10.305Z,16.00
2019-03-23T12:32:39.428Z,15.60
2019-03-23T12:35:08.576Z,15.40
2019-03-23T12:37:37.633Z,15.80
2019-03-23T12:40:08.245Z,15.60
2019-03-23T12:42:37.412Z,15.80
2019-03-23T12:45:07.657Z,15.90
2019-03-23T12:47:36.700Z,15.60
2019-03-23T12:50:07.788Z,15.50
2019-03-23T12:52:36.833Z,16.00
2019-03-23T12:55:07.032Z,16.00
2019-03-23T12:57:36.080Z,16.20
2019-03-23T13:00:08.349Z,15.80
2019-03-23T13:02:37.398Z,15.50
2019-03-23T13:05:07.691Z,15.20
2019-03-23T13:07:36.744Z,15.30
2019-03-23T13:10:08.707Z,15.10
2019-03-23T13:12:37.756Z,15.40
2019-03-23T13:15:09.126Z,15.20
2019-03-23T13:17:38.154Z,14.90
2019-03-23T13:20:16.381Z,15.00
2019-03-23T13:22:40.761Z,14.50
2019-03-23T13:25:10.282Z,14.00
2019-03-23T13:27:39.311Z,13.70
2019-03-23T13:30:13.615Z,13.70
2019-03-23T13:32:41.308Z,13.40
2019-03-23T13:35:10.119Z,13.40
2019-03-23T13:37:39.163Z,13.00
2019-03-23T13:40:10.551Z,12.90
2019-03-23T13:42:39.604Z,12.90
2019-03-23T13:45:09.185Z,13.00
2019-03-23T13:47:39.677Z,13.00
2019-03-23T13:50:10.633Z,13.00
2019-03-23T13:52:39.667Z,13.10
2019-03-23T13:55:13.183Z,13.00
2019-03-23T13:57:41.945Z,12.70
2019-03-23T14:00:11.721Z,12.70
2019-03-23T14:02:40.803Z,12.90
2019-03-23T14:05:16.031Z,12.50
2019-03-23T14:07:40.799Z,12.30
2019-03-23T14:10:10.087Z,12.50
2019-03-23T14:12:39.124Z,12.40
2019-03-23T14:15:08.264Z,12.20
2019-03-23T14:17:37.321Z,12.30
2019-03-23T14:20:07.112Z,12.40
2019-03-23T14:22:36.176Z,12.50
2019-03-23T14:25:06.774Z,12.70
2019-03-23T14:27:35.837Z,12.40
2019-03-23T14:30:06.961Z,12.60
2019-03-23T14:32:36.129Z,12.70
2019-03-23T14:35:06.496Z,12.40
2019-03-23T14:37:35.620Z,12.60
2019-03-23T14:40:05.692Z,12.50
2019-03-23T14:42:35.696Z,12.60
2019-03-23T14:45:06.484Z,12.60
2019-03-23T14:47:35.544Z,12.80
2019-03-23T14:50:06.334Z,12.70
2019-03-23T14:52:35.471Z,12.60
2019-03-23T14:55:06.380Z,12.50
2019-03-23T14:57:35.442Z,12.70
2019-03-23T15:00:07.136Z,12.60
2019-03-23T15:02:36.192Z,12.20
2019-03-23T15:05:07.490Z,12.20
2019-03-23T15:07:36.624Z,12.20
2019-03-23T15:10:08.629Z,12.30
2019-03-23T15:12:37.901Z,12.30
2019-03-23T15:15:08.453Z,12.00
2019-03-23T15:17:37.643Z,12.00
2019-03-23T15:20:07.560Z,11.90
2019-03-23T15:22:36.686Z,12.00
2019-03-23T15:25:06.705Z,12.20
2019-03-23T15:27:35.768Z,12.00
2019-03-23T15:30:06.366Z,12.00
2019-03-23T15:32:35.426Z,11.70
2019-03-23T15:35:06.558Z,11.70
2019-03-23T15:37:35.676Z,11.60
2019-03-23T15:40:07.000Z,11.50
2019-03-23T15:42:36.053Z,11.00
2019-03-23T15:45:07.312Z,10.70
2019-03-23T15:47:36.364Z,10.80
2019-03-23T15:50:07.143Z,10.80
2019-03-23T15:52:36.177Z,10.80
2019-03-23T15:55:06.290Z,10.80
2019-03-23T15:57:35.921Z,10.70
2019-03-23T16:00:10.116Z,10.50
2019-03-23T16:02:39.700Z,10.40
2019-03-23T16:05:08.965Z,10.50
2019-03-23T16:07:39.541Z,10.60
2019-03-23T16:10:08.832Z,10.30
2019-03-23T16:12:39.049Z,10.00
2019-03-23T16:15:10.625Z,9.90
2019-03-23T16:17:39.663Z,10.10
2019-03-23T16:20:11.195Z,10.00
2019-03-23T16:22:40.331Z,10.00
2019-03-23T16:25:10.131Z,10.00
2019-03-23T16:27:39.178Z,10.10
2019-03-23T16:30:11.774Z,10.10
2019-03-23T16:32:40.907Z,10.10
2019-03-23T16:35:10.451Z,10.00
2019-03-23T16:37:39.571Z,9.60
2019-03-23T16:40:09.784Z,9.70
2019-03-23T16:42:45.335Z,9.50
2019-03-23T16:45:10.267Z,9.40
2019-03-23T16:47:39.411Z,9.40
2019-03-23T16:50:10.490Z,9.40
2019-03-23T16:52:39.627Z,9.30
2019-03-23T16:55:17.898Z,9.30
2019-03-23T16:57:47.685Z,9.10
2019-03-23T17:00:18.513Z,9.10
2019-03-23T17:02:47.635Z,9.00
2019-03-23T17:05:16.682Z,9.00
2019-03-23T17:07:45.797Z,9.00
2019-03-23T17:10:14.845Z,8.90
2019-03-23T17:12:44.059Z,8.90
2019-03-23T17:15:13.205Z,8.80
2019-03-23T17:17:42.340Z,8.70
2019-03-23T17:20:12.311Z,8.50
2019-03-23T17:22:41.389Z,8.50
2019-03-23T17:25:10.511Z,8.40
2019-03-23T17:27:39.596Z,8.50
2019-03-23T17:30:09.854Z,8.40
2019-03-23T17:32:39.075Z,8.50
2019-03-23T17:35:08.322Z,8.40
2019-03-23T17:37:37.453Z,8.50
2019-03-23T17:40:07.329Z,8.50
2019-03-23T17:42:36.392Z,8.50
2019-03-23T17:45:07.242Z,8.50
2019-03-23T17:47:36.370Z,8.50
2019-03-23T17:50:05.793Z,8.40
2019-03-23T17:52:34.848Z,8.10
2019-03-23T17:55:05.724Z,8.10
2019-03-23T17:57:34.767Z,8.10
2019-03-23T18:00:09.069Z,8.00
2019-03-23T18:02:37.890Z,8.00
2019-03-23T18:05:07.991Z,8.00
2019-03-23T18:07:37.096Z,8.00
2019-03-23T18:10:07.940Z,8.00
2019-03-23T18:12:37.032Z,7.90
2019-03-23T18:15:08.329Z,8.00
2019-03-23T18:17:37.478Z,8.00
2019-03-23T18:20:07.663Z,7.90
2019-03-23T18:22:36.750Z,7.90
2019-03-23T18:25:06.896Z,7.90
2019-03-23T18:27:36.069Z,7.90
2019-03-23T18:32:45.558Z,7.80
2019-03-23T18:35:14.605Z,7.80
2019-03-23T18:37:43.637Z,7.70
2019-03-23T18:40:12.679Z,7.50
2019-03-23T18:42:41.728Z,7.50
2019-03-23T18:45:22.169Z,7.30
2019-03-23T18:47:51.570Z,7.30
2019-03-23T18:50:20.703Z,7.30
2019-03-23T18:52:49.789Z,7.40
2019-03-23T18:55:18.880Z,7.30
2019-03-23T18:57:48.035Z,7.30
2019-03-23T19:00:37.641Z,7.40
2019-03-23T19:03:07.085Z,7.40
2019-03-23T19:05:36.549Z,7.30
2019-03-23T19:08:06.240Z,7.30
2019-03-23T19:10:35.301Z,7.30
2019-03-23T19:13:04.682Z,7.30
2019-03-23T19:15:33.759Z,7.20
2019-03-23T19:18:02.872Z,7.10
2019-03-23T19:20:31.964Z,7.20
2019-03-23T19:23:01.100Z,7.10
2019-03-23T19:25:30.717Z,7.10
2019-03-23T19:27:59.790Z,7.10
2019-03-23T19:30:29.194Z,7.00
2019-03-23T19:32:58.245Z,7.00
2019-03-23T19:35:27.366Z,7.00
2019-03-23T19:37:56.410Z,7.10
2019-03-23T19:40:25.648Z,7.00
2019-03-23T19:42:54.769Z,7.10
2019-03-23T19:45:23.915Z,7.10
2019-03-23T19:47:53.011Z,7.10
2019-03-23T19:50:23.785Z,7.10
2019-03-23T19:52:52.830Z,7.10
2019-03-23T19:55:21.878Z,7.00
2019-03-23T19:57:54.442Z,7.00
2019-03-23T20:00:21.897Z,6.90
2019-03-23T20:02:53.745Z,6.90
2019-03-23T20:05:22.787Z,6.70
2019-03-23T20:07:51.835Z,6.70
2019-03-23T20:10:20.908Z,6.60
2019-03-23T20:12:50.009Z,6.70
2019-03-23T20:15:19.134Z,6.70
2019-03-23T20:17:48.212Z,6.80
2019-03-23T20:20:17.498Z,6.80
2019-03-23T20:22:46.577Z,6.80
2019-03-23T20:25:15.676Z,6.80
2019-03-23T20:27:59.251Z,6.70
2019-03-23T20:30:52.991Z,6.60
2019-03-23T20:32:59.621Z,6.60
2019-03-23T20:35:28.666Z,6.60
2019-03-23T20:37:57.707Z,6.60
2019-03-23T20:45:46.056Z,6.40
2019-03-23T20:48:15.362Z,6.40
2019-03-23T20:50:45.061Z,6.40
2019-03-23T20:53:15.761Z,6.40
2019-03-23T20:55:45.004Z,6.30
2019-03-23T20:58:14.325Z,6.20
2019-03-23T21:00:43.394Z,6.30
2019-03-23T21:03:12.445Z,6.30
2019-03-23T21:05:41.557Z,6.30
2019-03-23T21:08:10.678Z,6.30
2019-03-23T21:10:39.757Z,6.10
2019-03-23T21:13:08.902Z,6.10
2019-03-23T21:15:38.219Z,6.10
2019-03-23T21:18:07.399Z,6.00
2019-03-23T21:20:36.556Z,6.00
2019-03-23T21:23:05.870Z,6.00
2019-03-23T21:25:34.997Z,6.00
2019-03-23T21:28:04.325Z,5.90
2019-03-23T21:34:09.033Z,5.90
2019-03-23T21:36:38.135Z,5.90
2019-03-23T21:39:07.427Z,5.90
2019-03-23T21:41:36.573Z,5.90
2019-03-23T21:44:05.802Z,5.90
2019-03-23T21:46:35.040Z,5.90
2019-03-23T21:49:04.285Z,5.90
2019-03-23T21:51:33.435Z,5.90
2019-03-23T21:54:02.595Z,5.90
2019-03-23T21:56:31.746Z,5.90
2019-03-23T21:59:00.943Z,5.90
2019-03-23T22:01:30.083Z,5.80
2019-03-23T22:03:59.166Z,5.90
2019-03-23T22:06:29.695Z,5.90
2019-03-23T22:08:58.824Z,5.80
2019-03-23T22:11:27.928Z,5.80
2019-03-23T22:13:57.134Z,5.80
2019-03-23T22:16:28.247Z,5.60
2019-03-23T22:18:57.102Z,5.60
2019-03-23T22:21:26.211Z,5.50
2019-03-23T22:23:55.414Z,5.40
2019-03-23T22:26:24.541Z,5.30
2019-03-23T22:28:53.744Z,5.30
2019-03-23T22:31:22.886Z,5.10
2019-03-23T22:33:51.977Z,5.00
2019-03-23T22:36:21.246Z,4.90
2019-03-23T22:38:50.341Z,5.00
2019-03-23T22:41:19.433Z,5.00
2019-03-23T22:43:48.514Z,5.00
2019-03-23T22:46:17.800Z,5.00
2019-03-23T22:48:47.009Z,5.00
2019-03-23T22:51:16.157Z,5.00
2019-03-23T22:53:48.040Z,5.10
2019-03-23T22:56:17.076Z,5.00
2019-03-23T22:58:46.228Z,5.00
2019-03-23T23:01:15.421Z,5.00
2019-03-23T23:03:44.538Z,5.00
2019-03-23T23:06:16.035Z,5.10
2019-03-23T23:08:45.109Z,5.10
2019-03-23T23:11:15.808Z,5.20
2019-03-23T23:13:44.995Z,5.10
2019-03-23T23:16:14.135Z,5.10
2019-03-23T23:18:43.290Z,5.10
2019-03-23T23:21:12.437Z,5.00
2019-03-23T23:23:41.546Z,4.90
2019-03-23T23:26:16.608Z,4.90
2019-03-23T23:28:53.398Z,4.80
2019-03-23T23:31:18.158Z,4.70
2019-03-23T23:33:47.219Z,4.70
2019-03-23T23:36:16.285Z,4.60
2019-03-23T23:38:45.341Z,4.60
2019-03-23T23:41:14.409Z,4.60
2019-03-23T23:43:43.456Z,4.60
2019-03-23T23:46:12.537Z,4.60
2019-03-23T23:48:50.818Z,4.60
2019-03-23T23:51:12.387Z,4.50
2019-03-23T23:53:41.521Z,4.50
2019-03-23T23:56:10.589Z,4.40
2019-03-23T23:58:39.678Z,4.40
